createdAt,value
2023-12-02T00:01:59.610Z,5.47
2023-12-02T00:04:26.058Z,5.10
2023-12-02T00:06:52.457Z,4.90
2023-12-02T00:09:18.849Z,5.93
2023-12-02T00:11:49.377Z,6.30
2023-12-02T00:14:15.733Z,6.05
2023-12-02T00:16:43.921Z,5.30
2023-12-02T00:19:10.387Z,5.38
2023-12-02T00:21:36.795Z,5.57
2023-12-02T00:24:03.336Z,5.15
2023-12-02T00:26:29.790Z,5.30
2023-12-02T00:28:56.203Z,5.50
2023-12-02T00:31:22.603Z,6.38
2023-12-02T00:33:49.068Z,6.83
2023-12-02T00:36:15.538Z,7.05
2023-12-02T00:38:41.937Z,6.60
2023-12-02T00:41:11.603Z,5.30
2023-12-02T00:43:38.057Z,5.70
2023-12-02T00:46:04.556Z,5.80
2023-12-02T00:48:31.005Z,5.40
2023-12-02T00:50:57.453Z,5.80
2023-12-02T00:53:23.880Z,5.63
2023-12-02T00:55:50.234Z,6.40
2023-12-02T00:58:22.205Z,5.60
2023-12-02T01:00:54.297Z,7.05
2023-12-02T01:03:20.750Z,5.80
2023-12-02T01:05:47.222Z,5.43
2023-12-02T01:08:13.704Z,6.00
2023-12-02T01:10:40.060Z,5.60
2023-12-02T01:13:06.454Z,6.07
2023-12-02T01:15:32.919Z,5.10
2023-12-02T01:17:59.430Z,5.50
2023-12-02T01:20:25.882Z,5.15
2023-12-02T01:22:52.258Z,5.13
2023-12-02T01:25:18.626Z,5.40
2023-12-02T01:27:45.066Z,5.18
2023-12-02T01:30:11.697Z,5.40
2023-12-02T01:32:38.386Z,5.63
2023-12-02T01:35:04.960Z,5.10
2023-12-02T01:37:31.313Z,5.68
2023-12-02T01:39:57.915Z,5.60
2023-12-02T01:42:24.358Z,6.05
2023-12-02T01:44:50.775Z,5.95
2023-12-02T01:47:17.107Z,5.90
2023-12-02T01:49:44.839Z,6.55
2023-12-02T01:52:11.629Z,5.90
2023-12-02T01:54:38.240Z,5.63
2023-12-02T01:57:04.707Z,5.90
2023-12-02T01:59:31.583Z,5.68
2023-12-02T02:01:57.944Z,6.05
2023-12-02T02:04:25.133Z,6.00
2023-12-02T02:06:51.569Z,5.80
2023-12-02T02:09:17.930Z,5.80
2023-12-02T02:11:44.323Z,5.97
2023-12-02T02:14:10.667Z,5.30
2023-12-02T02:16:37.185Z,5.75
2023-12-02T02:19:03.729Z,5.95
2023-12-02T02:21:30.308Z,5.65
2023-12-02T02:23:56.712Z,5.85
2023-12-02T02:26:23.090Z,5.97
2023-12-02T02:28:49.437Z,5.80
2023-12-02T02:31:15.819Z,5.25
2023-12-02T02:33:42.253Z,5.60
2023-12-02T02:36:09.178Z,5.50
2023-12-02T02:38:35.591Z,5.75
2023-12-02T02:41:01.977Z,5.85
2023-12-02T02:43:28.359Z,5.78
2023-12-02T02:45:54.927Z,6.13
2023-12-02T02:48:21.554Z,5.90
2023-12-02T02:50:47.985Z,5.72
2023-12-02T02:53:14.365Z,6.32
2023-12-02T02:55:40.850Z,5.90
2023-12-02T02:58:07.465Z,6.20
2023-12-02T03:00:34.357Z,6.38
2023-12-02T03:03:00.886Z,6.60
2023-12-02T03:05:28.087Z,6.60
2023-12-02T03:07:54.671Z,6.68
2023-12-02T03:10:21.084Z,6.82
2023-12-02T03:12:47.556Z,6.97
2023-12-02T03:15:14.178Z,6.57
2023-12-02T03:17:40.654Z,6.40
2023-12-02T03:20:07.616Z,6.50
2023-12-02T03:22:34.055Z,6.28
2023-12-02T03:25:01.167Z,6.38
2023-12-02T03:27:27.636Z,6.35
2023-12-02T03:29:54.084Z,6.30
2023-12-02T03:32:20.453Z,6.65
2023-12-02T03:34:46.836Z,6.65
2023-12-02T03:37:13.307Z,6.80
2023-12-02T03:39:39.786Z,6.60
2023-12-02T03:42:06.261Z,6.75
2023-12-02T03:44:32.649Z,6.93
2023-12-02T03:46:59.027Z,6.97
2023-12-02T03:49:25.439Z,7.15
2023-12-02T03:51:51.853Z,7.13
2023-12-02T03:54:18.259Z,7.17
2023-12-02T03:56:45.160Z,7.40
2023-12-02T03:59:12.453Z,6.80
2023-12-02T04:01:38.850Z,7.45
2023-12-02T04:04:05.332Z,7.47
2023-12-02T04:06:31.833Z,7.25
2023-12-02T04:08:58.339Z,7.40
2023-12-02T04:11:24.747Z,7.90
2023-12-02T04:13:51.108Z,8.07
2023-12-02T04:16:17.467Z,7.88
2023-12-02T04:18:43.902Z,7.57
2023-12-02T04:21:10.587Z,7.35
2023-12-02T04:23:38.181Z,8.07
2023-12-02T04:26:04.594Z,8.48
2023-12-02T04:28:31.126Z,8.17
2023-12-02T04:30:58.308Z,8.63
2023-12-02T04:33:25.136Z,8.30
2023-12-02T04:35:51.579Z,8.55
2023-12-02T04:38:19.046Z,8.65
2023-12-02T04:40:45.397Z,8.80
2023-12-02T04:43:11.762Z,8.60
2023-12-02T04:45:38.208Z,9.32
2023-12-02T04:48:04.761Z,12.35
2023-12-02T04:50:31.203Z,9.40
2023-12-02T04:52:58.134Z,9.85
2023-12-02T04:55:24.519Z,10.27
2023-12-02T04:57:50.876Z,9.98
2023-12-02T05:00:18.049Z,9.90
2023-12-02T05:02:44.863Z,10.48
2023-12-02T05:05:11.433Z,10.32
2023-12-02T05:07:38.220Z,10.82
2023-12-02T05:10:05.947Z,10.70
2023-12-02T05:12:32.670Z,10.82
2023-12-02T05:14:59.189Z,11.73
2023-12-02T05:17:25.568Z,11.45
2023-12-02T05:19:52.008Z,11.82
2023-12-02T05:22:18.380Z,11.63
2023-12-02T05:24:44.791Z,11.02
2023-12-02T05:27:12.030Z,11.97
2023-12-02T05:29:38.429Z,11.55
2023-12-02T05:32:04.998Z,11.45
2023-12-02T05:34:35.664Z,11.43
2023-12-02T05:37:02.094Z,12.23
2023-12-02T05:39:28.524Z,10.95
2023-12-02T05:41:55.228Z,10.77
2023-12-02T05:44:21.644Z,11.77
2023-12-02T05:46:47.989Z,11.07
2023-12-02T05:49:14.432Z,11.82
2023-12-02T05:51:40.961Z,8.07
2023-12-02T05:54:08.174Z,9.68
2023-12-02T05:56:34.535Z,10.23
2023-12-02T05:59:00.913Z,10.98
2023-12-02T06:01:28.131Z,11.70
2023-12-02T06:03:55.767Z,12.03
2023-12-02T06:06:22.406Z,11.77
2023-12-02T06:08:48.884Z,11.38
2023-12-02T06:11:15.305Z,11.35
2023-12-02T06:13:41.692Z,11.35
2023-12-02T06:16:08.185Z,12.23
2023-12-02T06:18:34.623Z,12.48
2023-12-02T06:21:01.091Z,13.27
2023-12-02T06:23:27.450Z,13.07
2023-12-02T06:25:53.877Z,13.38
2023-12-02T06:28:21.464Z,12.87
2023-12-02T06:30:47.930Z,13.60
2023-12-02T06:33:14.329Z,13.75
2023-12-02T06:35:40.746Z,13.20
2023-12-02T06:38:07.152Z,13.35
2023-12-02T06:40:33.594Z,14.15
2023-12-02T06:42:59.950Z,13.50
2023-12-02T06:45:26.361Z,14.23
2023-12-02T06:47:52.787Z,14.57
2023-12-02T06:50:19.158Z,14.00
2023-12-02T06:52:45.519Z,14.37
2023-12-02T06:57:41.941Z,14.00
2023-12-02T07:00:10.657Z,14.10
2023-12-02T07:02:37.106Z,14.40
2023-12-02T07:05:03.605Z,14.53
2023-12-02T07:07:30.020Z,14.75
2023-12-02T07:09:56.486Z,14.57
2023-12-02T07:12:22.959Z,14.90
2023-12-02T07:14:49.389Z,14.93
2023-12-02T07:17:15.763Z,14.38
2023-12-02T07:19:42.147Z,14.27
2023-12-02T07:22:08.532Z,15.18
2023-12-02T07:24:34.935Z,14.63
2023-12-02T07:27:01.349Z,15.07
2023-12-02T07:31:57.087Z,14.70
2023-12-02T07:34:23.488Z,15.02
2023-12-02T07:36:49.895Z,15.10
2023-12-02T07:39:16.279Z,15.48
2023-12-02T07:41:43.534Z,14.63
2023-12-02T07:44:09.908Z,15.30
2023-12-02T07:46:36.343Z,15.25
2023-12-02T07:49:02.742Z,15.23
2023-12-02T07:51:29.170Z,15.45
2023-12-02T07:53:55.558Z,15.15
2023-12-02T07:56:21.905Z,15.82
2023-12-02T07:58:48.341Z,16.00
2023-12-02T08:01:14.741Z,15.95
2023-12-02T08:03:41.087Z,16.47
2023-12-02T08:06:07.723Z,16.40
2023-12-02T08:08:34.173Z,16.48
2023-12-02T08:11:00.670Z,16.15
2023-12-02T08:13:27.191Z,15.65
2023-12-02T08:15:53.639Z,15.63
2023-12-02T08:18:22.249Z,14.73
2023-12-02T08:20:48.616Z,16.50
2023-12-02T08:23:15.131Z,16.13
2023-12-02T08:25:41.512Z,16.33
2023-12-02T08:28:07.931Z,15.85
2023-12-02T08:30:34.384Z,16.25
2023-12-02T08:33:00.741Z,15.50
2023-12-02T08:35:27.102Z,15.07
2023-12-02T08:37:53.523Z,15.38
2023-12-02T08:40:20.021Z,15.88
2023-12-02T08:42:46.456Z,14.25
2023-12-02T08:45:12.834Z,14.48
2023-12-02T08:47:39.234Z,14.40
2023-12-02T08:50:06.434Z,15.07
2023-12-02T08:52:32.910Z,15.10
2023-12-02T08:54:59.320Z,14.73
2023-12-02T08:57:25.704Z,14.43
2023-12-02T08:59:52.111Z,14.80
2023-12-02T09:02:18.540Z,14.68
2023-12-02T09:04:44.981Z,14.73
2023-12-02T09:07:11.375Z,14.50
2023-12-02T09:09:37.722Z,14.70
2023-12-02T09:12:04.280Z,14.90
2023-12-02T09:14:30.675Z,14.93
2023-12-02T09:16:57.244Z,16.30
2023-12-02T09:19:42.342Z,15.38
2023-12-02T09:22:22.446Z,14.00
2023-12-02T09:24:48.855Z,14.65
2023-12-02T09:27:35.173Z,15.60
2023-12-02T09:30:02.262Z,13.90
2023-12-02T09:32:45.327Z,14.95
2023-12-02T09:35:11.886Z,13.27
2023-12-02T09:37:57.585Z,13.90
2023-12-02T09:40:26.946Z,14.50
2023-12-02T09:43:03.812Z,14.00
2023-12-02T09:45:33.446Z,15.95
2023-12-02T09:48:06.549Z,13.77
2023-12-02T09:50:36.058Z,14.13
2023-12-02T09:53:16.059Z,14.82
2023-12-02T09:55:48.063Z,14.65
2023-12-02T09:58:24.437Z,14.07
2023-12-02T10:00:53.499Z,14.77
2023-12-02T10:03:40.093Z,14.80
2023-12-02T10:06:12.705Z,14.90
2023-12-02T10:08:45.348Z,14.10
2023-12-02T10:11:17.804Z,13.35
2023-12-02T10:13:45.588Z,13.33
2023-12-02T10:16:16.809Z,13.80
2023-12-02T10:18:47.823Z,14.30
2023-12-02T10:21:16.606Z,14.02
2023-12-02T10:23:50.715Z,13.95
2023-12-02T10:26:25.001Z,14.27
2023-12-02T10:29:00.779Z,13.55
2023-12-02T10:31:28.849Z,14.17
2023-12-02T10:34:09.741Z,14.48
2023-12-02T10:36:37.062Z,14.93
2023-12-02T10:39:14.432Z,14.23
2023-12-02T10:41:52.621Z,14.87
2023-12-02T10:44:21.425Z,14.35
2023-12-02T10:46:49.206Z,14.27
2023-12-02T10:49:16.187Z,14.82
2023-12-02T10:51:43.690Z,14.60
2023-12-02T10:54:13.322Z,14.80
2023-12-02T10:56:40.512Z,14.93
2023-12-02T10:59:09.196Z,15.20
2023-12-02T11:01:59.709Z,15.45
2023-12-02T11:04:27.059Z,15.17
2023-12-02T11:07:01.815Z,15.60
2023-12-02T11:09:28.323Z,14.82
2023-12-02T11:12:04.520Z,14.65
2023-12-02T11:14:36.906Z,15.93
2023-12-02T11:17:22.108Z,15.70
2023-12-02T11:19:51.602Z,16.23
2023-12-02T11:22:52.194Z,15.45
2023-12-02T11:25:21.962Z,14.90
2023-12-02T11:27:52.566Z,14.93
2023-12-02T11:30:39.262Z,14.52
2023-12-02T11:33:14.592Z,15.05
2023-12-02T11:35:52.862Z,14.60
2023-12-02T11:38:20.268Z,14.18
2023-12-02T11:41:05.135Z,14.70
2023-12-02T11:43:44.055Z,14.32
2023-12-02T11:46:15.897Z,13.77
2023-12-02T11:48:42.352Z,14.57
2023-12-02T11:51:23.518Z,14.50
2023-12-02T11:53:53.123Z,14.60
2023-12-02T11:56:21.274Z,14.00
2023-12-02T11:59:10.811Z,14.32
2023-12-02T12:01:40.418Z,13.07
2023-12-02T12:04:21.205Z,14.25
2023-12-02T12:06:47.675Z,14.02
2023-12-02T12:09:14.134Z,13.82
2023-12-02T12:11:41.516Z,13.05
2023-12-02T12:14:08.935Z,13.50
2023-12-02T12:16:42.554Z,13.90
2023-12-02T12:19:10.038Z,13.98
2023-12-02T12:21:36.546Z,13.77
2023-12-02T12:24:03.067Z,13.47
2023-12-02T12:26:29.566Z,13.50
2023-12-02T12:28:56.517Z,13.35
2023-12-02T12:31:22.928Z,14.00
2023-12-02T12:33:52.919Z,15.13
2023-12-02T12:36:23.170Z,19.50
2023-12-02T12:38:50.452Z,19.35
2023-12-02T12:41:17.090Z,13.13
2023-12-02T12:43:43.448Z,13.48
2023-12-02T12:46:11.700Z,13.68
2023-12-02T12:48:39.478Z,12.90
2023-12-02T12:51:07.958Z,13.27
2023-12-02T12:53:36.693Z,13.27
2023-12-02T12:56:07.742Z,13.30
2023-12-02T12:58:38.809Z,13.07
2023-12-02T13:01:06.037Z,12.77
2023-12-02T13:03:35.453Z,13.50
2023-12-02T13:06:14.478Z,15.93
2023-12-02T13:08:48.801Z,13.20
2023-12-02T13:11:25.431Z,13.45
2023-12-02T13:13:58.914Z,13.73
2023-12-02T13:16:26.967Z,13.73
2023-12-02T13:18:55.819Z,13.80
2023-12-02T13:21:22.715Z,13.82
2023-12-02T13:23:50.455Z,13.80
2023-12-02T13:26:18.194Z,13.80
2023-12-02T13:28:45.420Z,13.88
2023-12-02T13:31:14.017Z,13.65
2023-12-02T13:33:46.490Z,13.88
2023-12-02T13:36:16.464Z,16.20
2023-12-02T13:38:51.183Z,12.75
2023-12-02T13:41:26.008Z,12.50
2023-12-02T13:43:53.170Z,13.80
2023-12-02T13:46:23.001Z,13.75
2023-12-02T13:48:52.434Z,14.55
2023-12-02T13:51:22.268Z,14.23
2023-12-02T13:53:54.077Z,13.55
2023-12-02T13:56:23.887Z,12.85
2023-12-02T13:59:01.985Z,13.53
2023-12-02T14:01:37.589Z,13.32
2023-12-02T14:04:32.127Z,14.20
2023-12-02T14:07:06.742Z,13.00
2023-12-02T14:09:35.121Z,13.32
2023-12-02T14:12:01.519Z,13.30
2023-12-02T14:14:57.231Z,13.65
2023-12-02T14:17:23.594Z,14.13
2023-12-02T14:19:58.168Z,13.25
2023-12-02T14:22:43.038Z,13.38
2023-12-02T14:25:17.398Z,13.23
2023-12-02T14:27:48.419Z,13.60
2023-12-02T14:30:34.980Z,14.02
2023-12-02T14:33:07.726Z,13.98
2023-12-02T14:35:53.171Z,13.68
2023-12-02T14:38:31.739Z,14.50
2023-12-02T14:41:10.416Z,15.65
2023-12-02T14:43:39.802Z,15.20
2023-12-02T14:46:06.285Z,15.70
2023-12-02T14:48:33.446Z,16.30
2023-12-02T14:51:03.207Z,15.23
2023-12-02T14:53:36.319Z,15.13
2023-12-02T14:56:23.025Z,15.68
2023-12-02T14:58:49.487Z,16.25
2023-12-02T15:01:16.059Z,17.23
2023-12-02T15:03:43.303Z,18.67
2023-12-02T15:06:11.670Z,16.80
2023-12-02T15:08:39.820Z,16.25
2023-12-02T15:11:07.051Z,15.88
2023-12-02T15:13:33.597Z,15.60
2023-12-02T15:16:00.128Z,15.50
2023-12-02T15:18:29.010Z,16.23
2023-12-02T15:21:06.158Z,16.05
2023-12-02T15:23:32.739Z,17.50
2023-12-02T15:25:59.694Z,16.58
2023-12-02T15:28:26.066Z,16.98
2023-12-02T15:30:58.048Z,17.00
2023-12-02T15:33:38.439Z,16.80
2023-12-02T15:36:05.759Z,18.03
2023-12-02T15:38:32.468Z,16.85
2023-12-02T15:40:59.735Z,17.38
2023-12-02T15:43:26.604Z,17.77
2023-12-02T15:45:53.068Z,18.20
2023-12-02T15:48:19.525Z,18.38
2023-12-02T15:50:46.000Z,18.58
2023-12-02T15:53:12.501Z,19.52
2023-12-02T15:55:39.506Z,20.10
2023-12-02T15:58:05.957Z,20.92
2023-12-02T16:00:32.322Z,20.58
2023-12-02T16:02:59.326Z,19.98
2023-12-02T16:05:26.546Z,18.52
2023-12-02T16:07:53.517Z,18.52
2023-12-02T16:10:20.743Z,17.80
2023-12-02T16:12:48.942Z,16.88
2023-12-02T16:15:15.617Z,17.02
2023-12-02T16:17:42.978Z,16.80
2023-12-02T16:20:12.695Z,16.17
2023-12-02T16:22:39.176Z,17.08
2023-12-02T16:25:09.343Z,16.95
2023-12-02T16:27:36.018Z,16.58
2023-12-02T16:30:04.096Z,17.42
2023-12-02T16:32:31.882Z,18.33
2023-12-02T16:34:58.475Z,17.25
2023-12-02T16:37:24.898Z,17.75
2023-12-02T16:39:51.986Z,17.75
2023-12-02T16:42:18.449Z,18.25
2023-12-02T16:44:44.865Z,18.52
2023-12-02T16:47:28.543Z,18.90
2023-12-02T16:49:54.989Z,19.02
2023-12-02T16:52:21.428Z,18.77
2023-12-02T16:54:47.761Z,19.40
2023-12-02T16:57:20.117Z,20.15
2023-12-02T16:59:49.962Z,20.35
2023-12-02T17:02:23.793Z,20.05
2023-12-02T17:04:50.349Z,20.20
2023-12-02T17:07:16.729Z,20.50
2023-12-02T17:09:44.773Z,20.65
2023-12-02T17:12:12.001Z,20.75
2023-12-02T17:14:38.863Z,21.70
2023-12-02T17:17:06.456Z,21.10
2023-12-02T17:19:33.649Z,21.55
2023-12-02T17:22:01.726Z,20.88
2023-12-02T17:24:30.363Z,21.48
2023-12-02T17:26:57.298Z,21.70
2023-12-02T17:29:27.435Z,21.27
2023-12-02T17:31:54.476Z,21.92
2023-12-02T17:34:21.179Z,22.05
2023-12-02T17:36:48.219Z,22.25
2023-12-02T17:39:14.866Z,22.27
2023-12-02T17:41:41.741Z,21.88
2023-12-02T17:44:08.279Z,22.63
2023-12-02T17:46:35.151Z,22.33
2023-12-02T17:49:01.891Z,22.88
2023-12-02T17:51:29.113Z,22.85
2023-12-02T17:53:56.449Z,23.10
2023-12-02T17:56:22.866Z,23.15
2023-12-02T17:58:49.542Z,23.20
2023-12-02T18:01:16.837Z,22.95
2023-12-02T18:03:43.240Z,23.30
2023-12-02T18:06:09.710Z,23.93
2023-12-02T18:08:36.130Z,24.33
2023-12-02T18:11:02.675Z,24.50
2023-12-02T18:13:30.392Z,25.30
2023-12-02T18:15:56.931Z,25.13
2023-12-02T18:18:24.462Z,25.45
2023-12-02T18:20:53.038Z,25.95
2023-12-02T18:23:21.300Z,25.63
2023-12-02T18:25:48.662Z,25.38
2023-12-02T18:28:15.146Z,25.57
2023-12-02T18:30:41.910Z,26.05
2023-12-02T18:33:08.959Z,25.95
2023-12-02T18:35:35.408Z,25.73
2023-12-02T18:38:01.807Z,25.95
2023-12-02T18:40:32.356Z,25.98
2023-12-02T18:42:59.139Z,25.63
2023-12-02T18:45:25.832Z,26.40
2023-12-02T18:47:52.854Z,25.90
2023-12-02T18:50:19.376Z,25.95
2023-12-02T18:52:46.609Z,27.08
2023-12-02T18:55:13.001Z,26.80
2023-12-02T18:57:39.496Z,26.43
2023-12-02T19:00:06.750Z,26.40
2023-12-02T19:02:33.983Z,26.25
2023-12-02T19:05:00.508Z,26.95
2023-12-02T19:07:26.975Z,25.88
2023-12-02T19:09:53.452Z,26.48
2023-12-02T19:12:21.059Z,26.75
2023-12-02T19:14:47.485Z,27.33
2023-12-02T19:17:13.888Z,28.05
2023-12-02T19:19:40.392Z,26.85
2023-12-02T19:22:06.828Z,26.52
2023-12-02T19:24:33.292Z,28.10
2023-12-02T19:26:59.750Z,28.00
2023-12-02T19:29:26.090Z,26.45
2023-12-02T19:31:52.487Z,26.98
2023-12-02T19:34:18.913Z,27.25
2023-12-02T19:36:45.336Z,27.27
2023-12-02T19:39:12.214Z,27.33
2023-12-02T19:41:38.625Z,28.30
2023-12-02T19:44:05.801Z,28.17
2023-12-02T19:46:32.202Z,28.20
2023-12-02T19:48:58.575Z,28.25
2023-12-02T19:51:25.277Z,27.70
2023-12-02T19:53:52.620Z,28.48
2023-12-02T19:56:19.014Z,28.23
2023-12-02T19:58:45.347Z,27.85
2023-12-02T20:01:12.382Z,28.45
2023-12-02T20:03:38.730Z,29.20
2023-12-02T20:06:05.303Z,30.10
2023-12-02T20:08:32.378Z,30.17
2023-12-02T20:10:58.835Z,29.90
2023-12-02T20:13:25.169Z,29.27
2023-12-02T20:15:51.497Z,29.67
2023-12-02T20:18:18.010Z,30.67
2023-12-02T20:20:46.203Z,30.60
2023-12-02T20:23:16.020Z,30.40
2023-12-02T20:25:42.391Z,31.40
2023-12-02T20:28:08.831Z,30.70
2023-12-02T20:30:35.338Z,30.70
2023-12-02T20:33:01.809Z,32.03
2023-12-02T20:35:28.183Z,31.05
2023-12-02T20:37:54.552Z,30.58
2023-12-02T20:40:20.897Z,31.52
2023-12-02T20:42:48.509Z,30.98
2023-12-02T20:45:15.016Z,31.73
2023-12-02T20:47:41.427Z,31.65
2023-12-02T20:50:08.023Z,31.30
2023-12-02T20:52:34.471Z,31.63
2023-12-02T20:55:00.908Z,32.20
2023-12-02T20:57:27.327Z,31.70
2023-12-02T20:59:53.736Z,31.90
2023-12-02T21:02:20.129Z,31.75
2023-12-02T21:04:46.486Z,32.92
2023-12-02T21:07:12.885Z,31.50
2023-12-02T21:09:41.017Z,31.38
2023-12-02T21:12:07.717Z,32.33
2023-12-02T21:14:34.128Z,30.80
2023-12-02T21:17:00.727Z,31.70
2023-12-02T21:19:27.321Z,31.67
2023-12-02T21:21:53.825Z,31.55
2023-12-02T21:24:20.366Z,31.87
2023-12-02T21:26:47.608Z,31.80
2023-12-02T21:29:14.125Z,32.10
2023-12-02T21:31:40.670Z,32.38
2023-12-02T21:34:08.839Z,31.50
2023-12-02T21:36:35.278Z,32.13
2023-12-02T21:39:01.707Z,33.50
2023-12-02T21:41:28.108Z,32.80
2023-12-02T21:43:56.578Z,30.83
2023-12-02T21:46:28.346Z,32.90
2023-12-02T21:48:58.638Z,32.80
2023-12-02T21:51:31.793Z,33.22
2023-12-02T21:54:05.137Z,32.87
2023-12-02T21:56:37.727Z,33.20
2023-12-02T21:59:07.938Z,32.83
2023-12-02T22:01:38.397Z,32.85
2023-12-02T22:04:11.551Z,33.42
2023-12-02T22:06:47.436Z,32.60
2023-12-02T22:09:30.462Z,33.55
2023-12-02T22:11:57.208Z,33.95
2023-12-02T22:14:24.880Z,34.45
2023-12-02T22:16:57.209Z,35.10
2023-12-02T22:19:23.862Z,33.38
2023-12-02T22:21:51.259Z,33.88
2023-12-02T22:24:17.859Z,33.83
2023-12-02T22:26:44.484Z,33.72
2023-12-02T22:29:11.332Z,34.40
2023-12-02T22:31:38.569Z,35.03
2023-12-02T22:34:13.476Z,34.60
2023-12-02T22:36:44.532Z,34.63
2023-12-02T22:39:23.559Z,34.17
2023-12-02T22:41:52.043Z,34.00
2023-12-02T22:44:21.670Z,34.08
2023-12-02T22:46:49.856Z,35.95
2023-12-02T22:49:21.767Z,35.40
2023-12-02T22:51:49.106Z,34.15
2023-12-02T22:54:30.869Z,35.65
2023-12-02T22:56:57.560Z,34.67
2023-12-02T22:59:24.551Z,34.38
2023-12-02T23:01:53.696Z,35.17
2023-12-02T23:04:29.336Z,35.40
2023-12-02T23:06:55.734Z,35.00
2023-12-02T23:09:37.433Z,34.38
2023-12-02T23:12:05.404Z,35.13
2023-12-02T23:14:38.370Z,35.45
2023-12-02T23:17:04.838Z,35.67
2023-12-02T23:19:35.794Z,36.05
2023-12-02T23:22:02.743Z,35.63
2023-12-02T23:24:32.965Z,36.42
2023-12-02T23:26:59.476Z,36.33
2023-12-02T23:29:26.304Z,36.03
2023-12-02T23:31:52.697Z,35.63
2023-12-02T23:34:20.084Z,35.80
2023-12-02T23:36:46.572Z,35.90
2023-12-02T23:39:33.267Z,36.33
2023-12-02T23:42:00.722Z,37.05
2023-12-02T23:44:46.912Z,35.88
2023-12-02T23:47:17.554Z,35.38
2023-12-02T23:49:43.948Z,35.50
2023-12-02T23:52:10.377Z,36.10
2023-12-02T23:54:36.786Z,35.88
2023-12-02T23:57:03.276Z,35.77
2023-12-02T23:59:29.749Z,35.55
